Time;durP1;ratioP1;P1;durP2;ratioP2;P2;SDS_P1;SDS_P2;PMS_P1;PMS_P2;Temp;Humidity;BMP_temperature;BMP_pressure;BME280_temperature;BME280_humidity;BME280_pressure;Samples;Min_cycle;Max_cycle;Signal;HPM_P1;HPM_P2
2022/03/05 00:00:05;;;;;;;26.63;16.48;;;;;;;1.05;100.00;100288.41;4921863;29;20048;-77
2022/03/05 00:03:04;;;;;;;30.23;16.20;;;;;;;1.11;100.00;100283.41;4909715;29;20061;-78
2022/03/05 00:05:49;;;;;;;27.30;15.25;;;;;;;1.22;100.00;100281.03;4921699;29;20403;-78
2022/03/05 00:08:33;;;;;;;25.20;14.93;;;;;;;1.23;100.00;100282.75;4905181;29;20066;-78
2022/03/05 00:11:17;;;;;;;27.33;15.32;;;;;;;1.22;100.00;100280.16;4921367;29;20051;-78
2022/03/05 00:14:01;;;;;;;26.88;17.17;;;;;;;1.26;100.00;100284.53;4907474;29;20119;-77
2022/03/05 00:16:46;;;;;;;30.73;16.40;;;;;;;1.22;100.00;100285.31;4907446;29;20447;-77
2022/03/05 00:19:30;;;;;;;24.80;14.13;;;;;;;1.13;100.00;100278.25;4921596;29;20052;-78
2022/03/05 00:22:14;;;;;;;25.48;14.93;;;;;;;1.07;100.00;100271.28;4921459;29;20048;-77
2022/03/05 00:24:59;;;;;;;24.63;14.82;;;;;;;0.99;100.00;100267.66;4921341;29;20040;-78
2022/03/05 00:27:43;;;;;;;23.05;14.30;;;;;;;1.02;100.00;100277.16;4921328;29;20044;-77
2022/03/05 00:30:28;;;;;;;25.85;15.50;;;;;;;0.87;100.00;100282.84;4921205;29;20369;-77
2022/03/05 00:33:12;;;;;;;30.13;16.60;;;;;;;0.87;100.00;100273.41;4921273;29;20052;-77
2022/03/05 00:35:58;;;;;;;35.60;17.45;;;;;;;0.94;100.00;100271.81;4921144;29;20047;-78
2022/03/05 00:38:42;;;;;;;78.38;25.77;;;;;;;0.90;100.00;100270.03;4921119;29;20051;-77
2022/03/05 00:41:27;;;;;;;117.82;36.03;;;;;;;0.98;100.00;100280.53;4893850;29;20055;-78
2022/03/05 00:44:11;;;;;;;97.53;32.45;;;;;;;0.85;100.00;100269.09;4893798;29;20055;-77
2022/03/05 00:46:56;;;;;;;108.30;35.17;;;;;;;0.91;100.00;100267.50;4906825;29;20044;-77
2022/03/05 00:49:40;;;;;;;105.45;36.00;;;;;;;0.86;100.00;100266.50;4920900;29;20044;-78
2022/03/05 00:52:25;;;;;;;73.10;31.00;;;;;;;0.80;100.00;100268.09;4893674;29;20044;-78
2022/03/05 00:55:09;;;;;;;66.40;29.20;;;;;;;0.78;100.00;100273.25;4906825;29;20044;-78
2022/03/05 00:57:54;;;;;;;52.17;25.35;;;;;;;0.69;100.00;100273.03;4920758;29;20044;-78
2022/03/05 01:00:39;;;;;;;53.08;23.90;;;;;;;0.66;100.00;100263.50;4893703;29;20056;-78
2022/03/05 01:03:23;;;;;;;49.67;22.48;;;;;;;0.66;100.00;100268.66;4920699;29;20424;-78
2022/03/05 01:06:08;;;;;;;30.95;16.80;;;;;;;0.64;100.00;100264.31;4906627;29;20044;-77
2022/03/05 01:08:52;;;;;;;39.00;19.67;;;;;;;0.56;100.00;100269.31;4906544;29;20048;-78
2022/03/05 01:11:37;;;;;;;29.25;17.40;;;;;;;0.52;100.00;100267.50;4906365;29;20060;-77
2022/03/05 01:14:22;;;;;;;33.85;18.02;;;;;;;0.54;100.00;100276.13;4920591;29;20048;-78
2022/03/05 01:17:06;;;;;;;31.25;18.67;;;;;;;0.37;100.00;100275.75;4920498;29;20044;-78
2022/03/05 01:19:51;;;;;;;27.13;16.08;;;;;;;0.52;100.00;100280.38;4893416;29;20447;-77
2022/03/05 01:22:36;;;;;;;26.08;14.98;;;;;;;0.45;100.00;100281.91;4920469;29;20458;-78
2022/03/05 01:25:21;;;;;;;27.08;15.30;;;;;;;0.45;100.00;100281.06;4906405;29;20462;-77
2022/03/05 01:28:06;;;;;;;28.15;16.40;;;;;;;0.29;100.00;100268.66;4920311;29;20439;-77
2022/03/05 01:30:50;;;;;;;30.60;16.42;;;;;;;0.35;100.00;100279.97;4919777;29;20040;-78
2022/03/05 01:33:34;;;;;;;24.80;15.30;;;;;;;0.32;100.00;100279.03;4906143;29;20044;-77
2022/03/05 01:36:18;;;;;;;26.67;15.50;;;;;;;0.43;100.00;100286.19;4893088;29;20044;-78
2022/03/05 01:39:03;;;;;;;23.73;14.65;;;;;;;0.31;100.00;100282.44;4906218;29;20040;-77
2022/03/05 01:41:53;;;;;;;29.08;15.30;;;;;;;0.32;100.00;100284.19;4906013;29;20048;-78
2022/03/05 01:44:37;;;;;;;29.13;15.75;;;;;;;0.16;100.00;100272.63;4892912;29;20040;-78
2022/03/05 01:47:23;;;;;;;25.98;15.32;;;;;;;0.17;100.00;100279.56;4920007;29;20119;-77
2022/03/05 01:50:08;;;;;;;28.80;16.05;;;;;;;0.14;100.00;100280.34;4919850;29;20045;-77
2022/03/05 01:52:53;;;;;;;31.13;16.27;;;;;;;0.05;100.00;100271.50;4905748;29;20044;-77
2022/03/05 01:55:38;;;;;;;29.77;15.77;;;;;;;0.15;100.00;100283.78;4919983;29;20044;-77
2022/03/05 01:58:22;;;;;;;29.17;16.45;;;;;;;0.14;100.00;100276.91;4919922;29;20048;-77
2022/03/05 02:01:07;;;;;;;25.60;15.10;;;;;;;-0.04;100.00;100262.72;4920012;29;20080;-77
2022/03/05 02:03:53;;;;;;;22.50;14.27;;;;;;;0.16;100.00;100280.38;4919827;29;20457;-77
2022/03/05 02:06:37;;;;;;;29.90;17.23;;;;;;;0.00;100.00;100271.41;4905849;29;20067;-77
2022/03/05 02:09:22;;;;;;;27.77;15.45;;;;;;;-0.01;100.00;100280.81;4892926;29;20044;-77
2022/03/05 02:12:06;;;;;;;28.73;15.25;;;;;;;-0.07;100.00;100279.78;4919604;29;20124;-77
2022/03/05 02:14:51;;;;;;;25.33;15.15;;;;;;;-0.15;100.00;100274.47;4905773;29;20048;-77
2022/03/05 02:17:36;;;;;;;26.27;14.95;;;;;;;-0.09;100.00;100273.75;4905911;29;20052;-77
2022/03/05 02:20:20;;;;;;;29.92;14.80;;;;;;;-0.12;100.00;100271.97;4919831;29;20052;-77
2022/03/05 02:23:05;;;;;;;21.75;14.35;;;;;;;-0.16;100.00;100284.72;4919755;29;20051;-77
2022/03/05 02:26:04;;;;;;;20.80;12.63;;;;;;;-0.12;100.00;100276.25;4919905;29;20079;-77
2022/03/05 02:28:50;;;;;;;21.15;13.68;;;;;;;-0.11;100.00;100289.16;4919974;29;20106;-77
2022/03/05 02:31:36;;;;;;;24.08;12.63;;;;;;;-0.19;100.00;100279.50;4919752;29;20350;-77
2022/03/05 02:34:21;;;;;;;21.65;12.77;;;;;;;-0.14;100.00;100283.06;4919849;29;20055;-77
2022/03/05 02:37:10;;;;;;;21.98;13.32;;;;;;;-0.27;100.00;100280.16;4920107;29;20119;-77
2022/03/05 02:39:56;;;;;;;19.63;12.48;;;;;;;-0.28;100.00;100282.72;4919722;29;20040;-77
2022/03/05 02:42:40;;;;;;;23.02;12.52;;;;;;;-0.19;100.00;100285.53;4920678;29;20044;-77
2022/03/05 02:45:24;;;;;;;22.95;13.02;;;;;;;-0.19;100.00;100282.94;4923656;29;20044;-77
2022/03/05 02:48:12;;;;;;;28.23;14.75;;;;;;;-0.28;100.00;100290.44;4923673;29;20052;-77
2022/03/05 02:50:57;;;;;;;24.50;14.38;;;;;;;-0.35;100.00;100286.81;4923781;29;20047;-77
2022/03/05 02:53:41;;;;;;;26.17;14.50;;;;;;;-0.52;100.00;100294.09;4924184;29;20063;-77
2022/03/05 02:56:25;;;;;;;23.17;13.80;;;;;;;-0.43;100.00;100296.03;4924050;29;20040;-77
2022/03/05 02:59:09;;;;;;;22.10;13.07;;;;;;;-0.49;100.00;100294.19;4924140;29;20044;-77
2022/03/05 03:01:54;;;;;;;20.77;12.43;;;;;;;-0.58;100.00;100288.78;4909898;29;20052;-77
2022/03/05 03:04:38;;;;;;;22.10;11.52;;;;;;;-0.41;100.00;100298.66;4923947;29;20096;-77
2022/03/05 03:07:23;;;;;;;18.98;11.30;;;;;;;-0.40;100.00;100284.94;4924150;29;20063;-77
2022/03/05 03:10:08;;;;;;;20.77;12.55;;;;;;;-0.40;100.00;100287.53;4923923;29;20152;-77
2022/03/05 03:12:54;;;;;;;18.02;10.45;;;;;;;-0.40;100.00;100283.25;4923728;29;20111;-77
2022/03/05 03:15:38;;;;;;;17.13;11.02;;;;;;;-0.53;100.00;100286.31;4923715;29;20328;-77
2022/03/05 03:18:23;;;;;;;21.83;11.60;;;;;;;-0.58;100.00;100287.91;4923695;29;20051;-77
2022/03/05 03:21:07;;;;;;;18.52;10.82;;;;;;;-0.55;100.00;100277.69;4909600;29;20103;-77
2022/03/05 03:23:51;;;;;;;20.80;10.90;;;;;;;-0.58;100.00;100288.78;4909655;29;20064;-77
2022/03/05 03:26:36;;;;;;;20.92;10.50;;;;;;;-0.50;100.00;100282.13;4909540;29;20469;-77
2022/03/05 03:29:20;;;;;;;17.75;10.15;;;;;;;-0.56;100.00;100276.81;4909522;29;20048;-77
2022/03/05 03:32:05;;;;;;;19.33;11.10;;;;;;;-0.50;100.00;100283.81;4896013;29;20040;-77
2022/03/05 03:34:50;;;;;;;16.55;9.45;;;;;;;-0.41;100.00;100281.50;4909459;29;20040;-77
2022/03/05 03:37:35;;;;;;;16.73;9.57;;;;;;;-0.48;100.00;100272.75;4923436;29;20435;-77
2022/03/05 03:40:21;;;;;;;18.45;10.82;;;;;;;-0.44;100.00;100272.84;4896030;29;20044;-77
2022/03/05 03:43:05;;;;;;;16.70;9.63;;;;;;;-0.52;100.00;100278.66;4906739;29;20060;-77
2022/03/05 03:45:49;;;;;;;20.83;10.65;;;;;;;-0.50;100.00;100281.25;4923102;29;20432;-77
2022/03/05 03:48:34;;;;;;;21.70;10.88;;;;;;;-0.48;100.00;100287.31;4909150;29;20383;-77
2022/03/05 03:51:18;;;;;;;16.30;10.20;;;;;;;-0.48;100.00;100279.59;4923057;29;20044;-77
2022/03/05 03:54:03;;;;;;;22.40;11.13;;;;;;;-0.45;100.00;100284.84;4922354;29;20044;-77
2022/03/05 03:56:47;;;;;;;25.10;11.45;;;;;;;-0.39;100.00;100285.00;4922737;29;20458;-77
2022/03/05 03:59:31;;;;;;;16.52;9.90;;;;;;;-0.36;100.00;100282.47;4908668;29;20048;-77
2022/03/05 04:02:16;;;;;;;17.13;10.02;;;;;;;-0.47;100.00;100286.50;4908513;29;20048;-77
2022/03/05 04:05:00;;;;;;;17.35;9.57;;;;;;;-0.22;100.00;100285.44;4922144;29;20040;-77
2022/03/05 04:10:48;;;;;;;18.88;10.43;;;;;;;-0.32;100.00;100283.47;4922459;29;20071;-77
2022/03/05 04:13:33;;;;;;;16.00;9.30;;;;;;;-0.29;100.00;100281.84;4908154;29;20060;-77
2022/03/05 04:16:17;;;;;;;17.30;9.35;;;;;;;-0.25;100.00;100280.22;4922433;29;20121;-77
2022/03/05 04:19:02;;;;;;;19.23;10.57;;;;;;;-0.40;100.00;100278.09;4908075;29;20044;-77
2022/03/05 04:21:46;;;;;;;18.83;10.40;;;;;;;-0.39;100.00;100286.69;4921769;29;20048;-77
2022/03/05 04:24:31;;;;;;;17.67;10.68;;;;;;;-0.64;100.00;100283.47;4907834;29;20363;-77
2022/03/05 04:27:15;;;;;;;20.60;11.85;;;;;;;-0.62;100.00;100286.06;4894867;29;20395;-77
2022/03/05 04:30:00;;;;;;;21.77;11.82;;;;;;;-0.57;100.00;100284.50;4922072;29;20045;-77
2022/03/05 04:32:44;;;;;;;19.77;10.90;;;;;;;-0.47;100.00;100281.34;4908283;29;20067;-77
2022/03/05 04:35:29;;;;;;;22.00;12.07;;;;;;;-0.52;100.00;100259.75;4922122;29;20040;-78
2022/03/05 04:38:13;;;;;;;18.52;10.18;;;;;;;-0.59;100.00;100283.56;4908148;29;20048;-77
2022/03/05 04:40:57;;;;;;;18.67;11.35;;;;;;;-0.50;100.00;100279.56;4921549;29;20067;-78
2022/03/05 04:43:41;;;;;;;20.63;10.90;;;;;;;-0.37;100.00;100275.59;4901652;29;20135;-77
2022/03/05 04:46:26;;;;;;;21.00;10.82;;;;;;;-0.48;100.00;100295.03;4894679;29;20355;-78
2022/03/05 04:49:12;;;;;;;20.60;12.25;;;;;;;-0.72;100.00;100290.94;4921708;29;20435;-77
2022/03/05 04:51:56;;;;;;;20.95;10.82;;;;;;;-0.63;100.00;100289.47;4921564;29;20051;-77
2022/03/05 04:54:41;;;;;;;19.85;10.73;;;;;;;-0.69;100.00;100291.88;4921853;29;20402;-77
2022/03/05 04:57:27;;;;;;;22.02;11.05;;;;;;;-0.78;100.00;100295.03;4907828;29;20044;-77
2022/03/05 05:00:12;;;;;;;19.65;11.55;;;;;;;-0.78;100.00;100292.47;4922093;29;20052;-77
2022/03/05 05:02:57;;;;;;;22.58;11.80;;;;;;;-0.90;100.00;100294.72;4908159;29;20362;-78
2022/03/05 05:05:41;;;;;;;19.52;11.35;;;;;;;-1.10;100.00;100295.00;4907409;29;20044;-78
2022/03/05 05:08:26;;;;;;;21.42;11.02;;;;;;;-1.04;100.00;100291.72;4922146;29;20051;-77
2022/03/05 05:11:11;;;;;;;23.95;12.48;;;;;;;-1.19;100.00;100293.03;4922200;29;20072;-78
2022/03/05 05:13:55;;;;;;;22.58;12.85;;;;;;;-1.18;100.00;100294.75;4922162;29;20048;-78
2022/03/05 05:16:39;;;;;;;23.60;13.85;;;;;;;-1.22;100.00;100297.22;4922194;29;20059;-78
2022/03/05 05:19:24;;;;;;;21.05;13.20;;;;;;;-1.28;100.00;100279.03;4894682;29;20055;-77
2022/03/05 05:22:09;;;;;;;27.48;14.75;;;;;;;-1.33;100.00;100289.19;4907552;29;20071;-77
2022/03/05 05:24:53;;;;;;;35.00;18.80;;;;;;;-1.31;100.00;100295.22;4889240;29;20044;-77
2022/03/05 05:27:38;;;;;;;28.77;16.10;;;;;;;-1.28;100.00;100303.03;4901193;29;20048;-77
2022/03/05 05:30:23;;;;;;;44.15;23.02;;;;;;;-1.24;100.00;100306.56;4894054;29;20048;-78
2022/03/05 05:33:07;;;;;;;100.00;34.25;;;;;;;-1.35;100.00;100301.09;4910132;29;20048;-77
2022/03/05 05:35:52;;;;;;;106.38;39.33;;;;;;;-1.50;100.00;100296.34;4923970;29;20052;-77
2022/03/05 05:38:36;;;;;;;42.53;19.40;;;;;;;-1.43;100.00;100302.56;4909162;29;20078;-78
2022/03/05 05:41:21;;;;;;;43.25;20.08;;;;;;;-1.41;100.00;100304.34;4908645;29;20372;-78
2022/03/05 05:44:08;;;;;;;33.30;15.55;;;;;;;-1.32;100.00;100315.75;4908912;29;20115;-77
2022/03/05 05:46:53;;;;;;;29.83;14.68;;;;;;;-1.39;100.00;100312.13;4895251;29;20407;-78
2022/03/05 05:49:37;;;;;;;24.92;12.63;;;;;;;-1.29;100.00;100313.28;4908087;29;20044;-77
2022/03/05 05:52:22;;;;;;;30.70;14.30;;;;;;;-1.29;100.00;100314.16;4908129;29;20048;-77
2022/03/05 05:55:06;;;;;;;34.30;18.52;;;;;;;-1.34;100.00;100312.25;4922406;29;20040;-77
2022/03/05 05:57:51;;;;;;;33.55;16.75;;;;;;;-1.10;100.00;100319.84;4922800;29;20045;-77
2022/03/05 06:00:35;;;;;;;34.08;18.45;;;;;;;-1.21;100.00;100320.38;4922510;29;20382;-77
2022/03/05 06:03:20;;;;;;;37.83;20.50;;;;;;;-1.16;100.00;100319.66;4894393;29;20059;-77
2022/03/05 06:06:04;;;;;;;36.33;20.05;;;;;;;-1.12;100.00;100324.06;4921279;29;20036;-77
2022/03/05 06:08:49;;;;;;;41.15;22.25;;;;;;;-1.13;100.00;100330.03;4894218;29;20055;-77
2022/03/05 06:11:34;;;;;;;42.67;21.75;;;;;;;-1.03;100.00;100332.06;4920987;29;20067;-77
2022/03/05 06:14:18;;;;;;;43.00;22.75;;;;;;;-1.05;100.00;100337.16;4920608;29;20043;-77
2022/03/05 06:17:03;;;;;;;46.13;24.95;;;;;;;-0.96;100.00;100332.28;4920279;29;20055;-77
2022/03/05 06:19:49;;;;;;;46.08;26.75;;;;;;;-0.92;100.00;100345.22;4920071;29;20044;-77
2022/03/05 06:22:34;;;;;;;45.72;24.25;;;;;;;-0.97;100.00;100319.41;4891713;29;20068;-77
2022/03/05 06:25:19;;;;;;;40.75;23.17;;;;;;;-0.97;100.00;100327.97;4921876;29;20051;-78
2022/03/05 06:28:03;;;;;;;41.92;23.42;;;;;;;-0.86;100.00;100306.84;4919690;29;20549;-78
2022/03/05 06:30:48;;;;;;;50.67;26.55;;;;;;;-0.80;100.00;100313.03;4902456;29;20450;-77
2022/03/05 06:33:33;;;;;;;53.35;28.65;;;;;;;-0.85;100.00;100322.28;4919592;29;20076;-77
2022/03/05 06:36:18;;;;;;;50.67;27.10;;;;;;;-0.68;100.00;100335.66;4918795;29;20051;-77
2022/03/05 06:39:03;;;;;;;51.05;29.38;;;;;;;-0.68;100.00;100352.78;4918516;29;20048;-78
2022/03/05 06:41:47;;;;;;;45.42;27.77;;;;;;;-0.56;100.00;100355.72;4918699;29;20052;-78
2022/03/05 06:44:35;;;;;;;52.22;30.92;;;;;;;-0.48;100.00;100331.09;4904238;29;20052;-78
2022/03/05 06:47:20;;;;;;;58.60;31.33;;;;;;;-0.60;100.00;100330.72;4918630;29;20126;-78
2022/03/05 06:50:06;;;;;;;67.15;31.80;;;;;;;-0.38;100.00;100365.66;4904845;29;20044;-78
2022/03/05 06:52:51;;;;;;;62.60;33.35;;;;;;;-0.49;100.00;100339.59;4918905;29;20052;-78
2022/03/05 06:55:35;;;;;;;60.92;32.35;;;;;;;-0.39;100.00;100330.44;4918572;29;20048;-78
2022/03/05 06:58:20;;;;;;;55.35;32.95;;;;;;;-0.38;100.00;100325.34;4919771;29;20051;-78
2022/03/05 07:01:06;;;;;;;68.22;37.00;;;;;;;-0.45;100.00;100340.59;4923758;29;20055;-78
2022/03/05 07:03:51;;;;;;;178.98;68.63;;;;;;;-0.21;100.00;100360.97;4939569;29;20032;-85
2022/03/05 07:07:04;;;;;;;405.33;117.10;;;;;;;-0.35;100.00;100353.75;4941875;29;20060;-84
2022/03/05 07:10:44;;;;;;;75.97;37.78;;;;;;;-0.58;100.00;100329.94;4847662;29;20068;-85
2022/03/05 07:13:38;;;;;;;64.80;33.88;;;;;;;-0.04;100.00;100378.59;4833134;29;20054;-81
2022/03/05 07:16:23;;;;;;;74.43;38.08;;;;;;;-0.40;100.00;100360.47;4831254;29;20054;-81
2022/03/05 07:19:08;;;;;;;82.32;41.35;;;;;;;-0.30;100.00;100359.00;4831139;29;20050;-82
2022/03/05 07:21:53;;;;;;;236.60;75.60;;;;;;;-0.54;100.00;100352.34;4833394;29;20058;-82
2022/03/05 07:24:38;;;;;;;93.60;47.33;;;;;;;-0.37;100.00;100378.56;4806899;29;20096;-81
2022/03/05 07:27:22;;;;;;;71.82;40.60;;;;;;;-0.25;100.00;100373.78;4821077;29;20069;-82
2022/03/05 07:30:08;;;;;;;80.22;40.78;;;;;;;-0.45;100.00;100356.91;4836309;29;20058;-81
2022/03/05 07:32:53;;;;;;;71.00;38.47;;;;;;;-0.23;100.00;100381.50;4835996;29;20050;-82
2022/03/05 07:35:37;;;;;;;73.03;40.58;;;;;;;-0.20;100.00;100368.72;4822366;29;20062;-82
2022/03/05 07:38:22;;;;;;;60.45;34.05;;;;;;;0.03;100.00;100382.22;4835694;29;20062;-81
2022/03/05 07:41:07;;;;;;;66.63;37.05;;;;;;;0.10;100.00;100381.56;4885337;29;20370;-82
2022/03/05 07:43:51;;;;;;;80.07;37.88;;;;;;;-0.01;100.00;100383.84;4880017;29;20052;-82
2022/03/05 07:46:36;;;;;;;71.05;38.08;;;;;;;-0.07;100.00;100365.66;4905851;29;20040;-82
2022/03/05 07:49:21;;;;;;;114.07;58.90;;;;;;;0.18;100.00;100384.34;4891322;29;20044;-82
2022/03/05 07:52:05;;;;;;;102.97;49.42;;;;;;;0.50;100.00;100398.03;4887336;29;20052;-82
2022/03/05 07:54:50;;;;;;;100.38;40.63;;;;;;;0.22;100.00;100375.84;4904048;29;20048;-82
2022/03/05 07:57:35;;;;;;;230.07;82.60;;;;;;;-0.25;100.00;100355.75;4903236;29;20100;-82
2022/03/05 08:00:19;;;;;;;126.53;47.97;;;;;;;0.14;100.00;100380.81;4903354;29;20119;-82
2022/03/05 08:03:04;;;;;;;65.95;33.92;;;;;;;0.36;100.00;100364.22;4903299;29;20044;-81
2022/03/05 08:05:48;;;;;;;139.50;51.90;;;;;;;0.06;100.00;100379.72;4903560;29;20045;-82
2022/03/05 08:08:33;;;;;;;173.20;60.72;;;;;;;0.61;100.00;100378.53;4886669;29;20056;-82
2022/03/05 08:11:17;;;;;;;143.55;48.33;;;;;;;0.85;100.00;100388.59;4903195;29;20056;-82
2022/03/05 08:14:01;;;;;;;328.20;88.28;;;;;;;0.81;100.00;100399.66;4903189;29;20055;-82
2022/03/05 08:16:45;;;;;;;73.18;35.85;;;;;;;1.14;100.00;100396.13;4903047;29;20408;-82
2022/03/05 08:19:30;;;;;;;60.75;31.65;;;;;;;0.92;100.00;100400.78;4902769;29;20105;-82
2022/03/05 08:22:15;;;;;;;60.88;30.60;;;;;;;1.12;100.00;100402.94;4903023;29;20488;-82
2022/03/05 08:24:59;;;;;;;58.30;32.90;;;;;;;0.94;100.00;100395.66;4903218;29;20041;-82
2022/03/05 08:27:44;;;;;;;60.22;32.42;;;;;;;1.04;100.00;100405.38;4902566;29;20102;-82
2022/03/05 08:30:29;;;;;;;57.47;31.58;;;;;;;0.97;100.00;100405.16;4902516;29;20421;-82
2022/03/05 08:33:13;;;;;;;52.80;29.40;;;;;;;1.11;100.00;100404.66;4903118;29;20040;-82
2022/03/05 08:35:57;;;;;;;71.15;35.55;;;;;;;1.23;100.00;100409.22;4888586;29;20041;-84
2022/03/05 08:38:42;;;;;;;68.65;34.65;;;;;;;1.29;100.00;100414.50;4902804;29;20052;-82
2022/03/05 08:41:27;;;;;;;99.25;43.10;;;;;;;1.48;100.00;100412.34;4902594;29;20053;-78
2022/03/05 08:44:11;;;;;;;62.28;35.67;;;;;;;1.36;100.00;100421.53;4902937;29;20442;-78
2022/03/05 08:46:56;;;;;;;152.10;61.10;;;;;;;1.25;100.00;100425.59;4886026;29;20060;-79
2022/03/05 08:49:40;;;;;;;148.45;63.13;;;;;;;1.51;100.00;100426.19;4902508;29;20056;-78
2022/03/05 08:52:25;;;;;;;97.03;43.50;;;;;;;1.20;100.00;100427.19;4902351;29;20063;-78
2022/03/05 08:55:12;;;;;;;216.43;103.13;;;;;;;1.42;100.00;100431.13;4888458;29;20436;-79
2022/03/05 08:57:56;;;;;;;737.03;344.50;;;;;;;1.35;100.00;100416.38;4902570;29;20056;-78
2022/03/05 09:00:40;;;;;;;207.73;93.20;;;;;;;1.53;100.00;100431.41;4902385;29;20052;-79
2022/03/05 09:03:26;;;;;;;227.15;89.60;;;;;;;1.47;100.00;100426.97;4902217;29;20144;-79
2022/03/05 09:06:10;;;;;;;188.95;76.53;;;;;;;1.57;100.00;100421.16;4888256;29;20044;-79
2022/03/05 09:08:55;;;;;;;179.90;80.93;;;;;;;1.82;100.00;100426.81;4902380;29;20055;-79
2022/03/05 09:11:40;;;;;;;142.45;68.22;;;;;;;1.61;100.00;100429.81;4903162;29;20063;-79
2022/03/05 09:14:25;;;;;;;144.75;60.15;;;;;;;1.73;100.00;100435.25;4906595;29;20044;-80
2022/03/05 09:17:10;;;;;;;89.70;42.88;;;;;;;1.67;100.00;100427.38;4920911;29;20431;-78
2022/03/05 09:19:54;;;;;;;62.58;31.10;;;;;;;1.82;100.00;100429.38;4921001;29;20040;-78
2022/03/05 09:22:39;;;;;;;48.70;28.40;;;;;;;1.97;100.00;100429.69;4920593;29;20103;-78
2022/03/05 09:25:25;;;;;;;105.55;41.47;;;;;;;1.98;100.00;100421.13;4921014;29;20427;-78
2022/03/05 09:28:09;;;;;;;42.13;26.10;;;;;;;2.24;100.00;100426.78;4920343;29;20131;-79
2022/03/05 09:30:54;;;;;;;230.90;99.63;;;;;;;1.97;100.00;100426.25;4906788;29;20415;-78
2022/03/05 09:33:39;;;;;;;247.65;95.95;;;;;;;2.23;100.00;100424.16;4920347;29;20048;-78
2022/03/05 09:36:23;;;;;;;95.07;42.03;;;;;;;2.17;100.00;100424.91;4920390;29;20044;-79
2022/03/05 09:39:08;;;;;;;43.88;25.55;;;;;;;2.34;100.00;100430.41;4903820;29;20067;-78
2022/03/05 09:41:53;;;;;;;52.45;28.85;;;;;;;2.76;100.00;100431.97;4920253;29;20059;-79
2022/03/05 09:44:38;;;;;;;75.15;31.92;;;;;;;2.53;100.00;100421.22;4920565;29;20117;-79
2022/03/05 09:47:23;;;;;;;57.10;26.23;;;;;;;2.38;100.00;100429.63;4920413;29;20069;-79
2022/03/05 09:50:09;;;;;;;97.03;34.40;;;;;;;2.43;100.00;100427.09;4903609;29;20056;-79
2022/03/05 09:52:53;;;;;;;54.55;26.17;;;;;;;2.38;100.00;100429.63;4905531;29;20040;-79
2022/03/05 09:55:37;;;;;;;64.53;28.05;;;;;;;2.48;100.00;100421.16;4920561;29;20048;-79
2022/03/05 09:58:22;;;;;;;39.63;22.35;;;;;;;2.98;100.00;100426.28;4919985;29;20044;-80
2022/03/05 10:01:07;;;;;;;31.98;19.27;;;;;;;2.85;100.00;100426.09;4919925;29;20442;-82
2022/03/05 10:03:54;;;;;;;36.42;20.73;;;;;;;2.84;100.00;100424.34;4920451;29;20041;-80
2022/03/05 10:06:38;;;;;;;38.00;22.33;;;;;;;2.91;100.00;100437.41;4919908;29;20471;-80
2022/03/05 10:09:23;;;;;;;40.92;21.77;;;;;;;2.85;100.00;100432.13;4906382;29;20048;-79
2022/03/05 10:12:26;;;;;;;43.35;21.48;;;;;;;3.26;100.00;100431.91;4919559;29;20510;-79
2022/03/05 10:15:21;;;;;;;46.08;22.05;;;;;;;3.57;100.00;100429.72;4919939;29;20446;-79
2022/03/05 10:18:05;;;;;;;64.00;38.28;;;;;;;3.66;100.00;100425.53;4919950;29;20059;-85
2022/03/05 10:20:52;;;;;;;144.68;65.60;;;;;;;3.90;100.00;100430.16;4919756;29;20427;-84
2022/03/05 10:23:39;;;;;;;51.80;27.00;;;;;;;3.98;100.00;100428.50;4919641;29;20048;-85
2022/03/05 10:26:24;;;;;;;47.22;23.42;;;;;;;4.16;100.00;100411.41;4905607;29;20411;-86
2022/03/05 10:29:19;;;;;;;44.30;23.38;;;;;;;3.91;100.00;100433.63;4920096;29;20427;-86
2022/03/05 10:32:09;;;;;;;84.13;43.70;;;;;;;3.71;100.00;100420.41;4919558;29;20037;-87
2022/03/05 10:34:54;;;;;;;31.88;19.95;;;;;;;4.24;100.00;100411.50;4919902;29;20055;-86
2022/03/05 10:37:51;;;;;;;104.93;59.17;;;;;;;4.11;100.00;100421.75;4919899;29;20062;-86
2022/03/05 10:40:35;;;;;;;54.40;27.63;;;;;;;4.19;100.00;100421.81;4919503;29;20086;-87
2022/03/05 10:43:20;;;;;;;58.00;35.38;;;;;;;4.34;100.00;100415.94;4919467;29;20408;-86
2022/03/05 10:46:05;;;;;;;30.45;20.52;;;;;;;4.40;100.00;100406.47;4919499;29;20439;-86
2022/03/05 10:48:50;;;;;;;36.85;18.00;;;;;;;3.69;100.00;100401.38;4905812;29;20040;-87
2022/03/05 10:51:34;;;;;;;29.55;14.90;;;;;;;3.96;100.00;100412.09;4919562;29;20044;-88
2022/03/05 10:54:27;;;;;;;22.02;13.25;;;;;;;3.88;100.00;100405.94;4892488;29;20119;-88
2022/03/05 10:57:13;;;;;;;67.40;26.50;;;;;;;3.61;100.00;100401.31;4904164;29;20048;-89
2022/03/05 11:00:07;;;;;;;42.83;18.65;;;;;;;3.77;100.00;100409.25;4917657;29;20096;-90
2022/03/05 11:02:52;;;;;;;28.00;12.55;;;;;;;4.10;100.00;100413.97;4904040;29;20048;-90
2022/03/05 11:05:38;;;;;;;31.02;15.52;;;;;;;4.43;100.00;100414.28;4921562;29;20052;-89
2022/03/05 11:08:22;;;;;;;32.30;16.65;;;;;;;3.86;100.00;100414.53;4921601;29;20044;-88
2022/03/05 11:11:07;;;;;;;19.85;11.98;;;;;;;4.16;100.00;100412.31;4894600;29;20328;-89
2022/03/05 11:13:52;;;;;;;16.95;11.65;;;;;;;3.61;100.00;100406.47;4908735;29;20063;-90
2022/03/05 11:16:37;;;;;;;24.65;14.20;;;;;;;3.20;100.00;100395.56;4908837;29;20372;-89
2022/03/05 11:19:23;;;;;;;17.33;8.23;;;;;;;3.03;100.00;100411.72;4922065;29;20453;-78
2022/03/05 11:22:09;;;;;;;15.93;8.60;;;;;;;2.76;100.00;100408.69;4922731;29;20055;-91
2022/03/05 11:24:54;;;;;;;29.40;15.13;;;;;;;2.62;100.00;100420.53;4896060;29;20127;-91
2022/03/05 11:27:38;;;;;;;17.55;10.70;;;;;;;2.62;100.00;100412.78;4922895;29;20503;-91
2022/03/05 11:30:24;;;;;;;18.67;10.02;;;;;;;2.27;100.00;100423.34;4895951;29;20431;-92
2022/03/05 11:33:19;;;;;;;29.67;14.40;;;;;;;2.19;100.00;100420.66;4893072;29;20059;-91
2022/03/05 11:36:05;;;;;;;28.60;13.13;;;;;;;2.28;100.00;100396.69;4895569;29;20099;-91
2022/03/05 11:39:16;;;;;;;18.73;10.30;;;;;;;2.10;100.00;100405.81;4908473;29;20044;-91
2022/03/05 11:42:05;;;;;;;64.57;31.17;;;;;;;2.16;100.00;100411.97;4895416;29;20076;-92
2022/03/05 11:44:50;;;;;;;13.23;7.35;;;;;;;1.80;100.00;100413.00;4908309;29;20048;-91
2022/03/05 11:47:36;;;;;;;43.05;15.82;;;;;;;1.80;100.00;100392.34;4922818;29;20040;-91
2022/03/05 11:50:21;;;;;;;38.47;13.55;;;;;;;2.00;100.00;100400.47;4908260;29;20055;-91
2022/03/05 11:53:13;;;;;;;24.52;11.15;;;;;;;1.93;100.00;100411.53;4908052;29;20051;-92
2022/03/05 11:56:22;;;;;;;27.98;13.20;;;;;;;1.67;100.00;100417.03;4906729;29;20070;-90
2022/03/05 11:59:39;;;;;;;44.47;23.40;;;;;;;1.99;100.00;100416.81;4920319;29;20044;-89
2022/03/05 12:02:42;;;;;;;125.63;71.68;;;;;;;2.09;100.00;100414.44;4920229;29;20059;-88
2022/03/05 12:05:32;;;;;;;142.02;77.88;;;;;;;2.05;100.00;100422.13;4920150;29;20048;-89
2022/03/05 12:08:26;;;;;;;15.73;9.48;;;;;;;1.79;100.00;100424.19;4920395;29;20036;-88
2022/03/05 12:11:19;;;;;;;24.00;20.40;;;;;;;1.67;100.00;100411.88;4894247;29;20048;-88
2022/03/05 12:14:06;;;;;;;54.42;22.80;;;;;;;1.45;100.00;100412.28;4893714;29;20041;-88
2022/03/05 12:16:50;;;;;;;116.57;47.03;;;;;;;1.56;100.00;100396.19;4921340;29;20043;-88
2022/03/05 12:19:35;;;;;;;90.90;36.50;;;;;;;1.58;100.00;100409.97;4922005;29;20044;-87
2022/03/05 12:22:20;;;;;;;18.45;8.30;;;;;;;1.53;100.00;100403.84;4921806;29;20363;-87
2022/03/05 12:25:05;;;;;;;12.27;6.22;;;;;;;1.46;100.00;100404.53;4894592;29;20100;-88
2022/03/05 12:27:51;;;;;;;27.58;13.32;;;;;;;1.39;100.00;100413.00;4907851;29;20055;-87
2022/03/05 12:30:37;;;;;;;53.22;20.42;;;;;;;1.40;100.00;100402.72;4921827;29;20048;-87